createdAt,value
2016-08-11T00:00:14.411Z,1020.7
2016-08-11T00:01:14.360Z,1020.67
2016-08-11T00:02:14.360Z,1020.69
2016-08-11T00:03:14.274Z,1020.69
2016-08-11T00:04:14.220Z,1020.71
2016-08-11T00:05:14.168Z,1020.66
2016-08-11T00:06:14.116Z,1020.65
2016-08-11T00:07:14.071Z,1020.69
2016-08-11T00:08:14.020Z,1020.69
2016-08-11T00:09:13.977Z,1020.64
2016-08-11T00:10:13.923Z,1020.65
2016-08-11T00:11:13.874Z,1020.66
2016-08-11T00:12:13.827Z,1020.63
2016-08-11T00:13:13.781Z,1020.62
2016-08-11T00:14:13.735Z,1020.61
2016-08-11T00:15:13.679Z,1020.61
2016-08-11T00:16:13.648Z,1020.59
2016-08-11T00:17:13.612Z,1020.57
2016-08-11T00:18:13.536Z,1020.56
2016-08-11T00:19:13.490Z,1020.56
2016-08-11T00:20:13.437Z,1020.56
2016-08-11T00:21:13.390Z,1020.54
2016-08-11T00:22:13.352Z,1020.56
2016-08-11T00:23:13.293Z,1020.55
2016-08-11T00:24:13.246Z,1020.54
2016-08-11T00:25:13.197Z,1020.52
2016-08-11T00:26:13.156Z,1020.52
2016-08-11T00:27:13.104Z,1020.54
2016-08-11T00:29:13.007Z,1020.49
2016-08-11T00:30:12.956Z,1020.53
2016-08-11T00:31:12.903Z,1020.54
2016-08-11T00:32:12.855Z,1020.52
2016-08-11T00:33:12.805Z,1020.49
2016-08-11T00:34:12.760Z,1020.49
2016-08-11T00:35:12.706Z,1020.51
2016-08-11T00:36:12.662Z,1020.49
2016-08-11T00:37:12.617Z,1020.49
2016-08-11T00:38:12.559Z,1020.49
2016-08-11T00:39:12.515Z,1020.49
2016-08-11T00:40:12.467Z,1020.5
2016-08-11T00:41:12.416Z,1020.51
2016-08-11T00:42:12.367Z,1020.48
2016-08-11T00:43:12.322Z,1020.48
2016-08-11T00:44:12.269Z,1020.47
2016-08-11T00:45:12.225Z,1020.51
2016-08-11T00:46:12.169Z,1020.52
2016-08-11T00:47:12.124Z,1020.47
2016-08-11T00:48:12.075Z,1020.47
2016-08-11T00:49:12.025Z,1020.47
2016-08-11T00:50:11.974Z,1020.48
2016-08-11T00:51:11.938Z,1020.46
2016-08-11T00:52:11.877Z,1020.47
2016-08-11T00:53:11.829Z,1020.42
2016-08-11T00:54:11.781Z,1020.47
2016-08-11T00:55:11.735Z,1020.44
2016-08-11T00:56:11.887Z,1020.46
2016-08-11T00:57:11.637Z,1020.49
2016-08-11T00:58:11.586Z,1020.45
2016-08-11T00:59:11.537Z,1020.5
2016-08-11T01:00:11.488Z,1020.49
2016-08-11T01:01:11.646Z,1020.5
2016-08-11T01:02:11.399Z,1020.46
2016-08-11T01:03:11.345Z,1020.51
2016-08-11T01:04:11.296Z,1020.52
2016-08-11T01:05:11.245Z,1020.47
2016-08-11T01:06:11.196Z,1020.47
2016-08-11T01:07:11.146Z,1020.44
2016-08-11T01:08:11.307Z,1020.44
2016-08-11T01:09:11.056Z,1020.44
2016-08-11T01:10:11.011Z,1020.45
2016-08-11T01:11:10.957Z,1020.48
2016-08-11T01:12:10.906Z,1020.45
2016-08-11T01:13:10.855Z,1020.47
2016-08-11T01:14:10.805Z,1020.47
2016-08-11T01:15:11.167Z,1020.44
2016-08-11T01:16:10.716Z,1020.51
2016-08-11T01:17:10.661Z,1020.53
2016-08-11T01:18:10.615Z,1020.53
2016-08-11T01:19:10.567Z,1020.52
2016-08-11T01:20:10.516Z,1020.53
2016-08-11T01:21:10.466Z,1020.53
2016-08-11T01:22:10.416Z,1020.52
2016-08-11T01:23:10.366Z,1020.52
2016-08-11T01:24:10.323Z,1020.51
2016-08-11T01:25:10.275Z,1020.51
2016-08-11T01:26:10.227Z,1020.51
2016-08-11T01:27:10.375Z,1020.5
2016-08-11T01:28:10.125Z,1020.46
2016-08-11T01:29:10.077Z,1020.5
2016-08-11T01:30:10.028Z,1020.51
2016-08-11T01:31:09.980Z,1020.5
2016-08-11T01:32:09.925Z,1020.53
2016-08-11T01:33:09.877Z,1020.55
2016-08-11T01:34:09.828Z,1020.52
2016-08-11T01:35:09.779Z,1020.58
2016-08-11T01:36:09.734Z,1020.57
2016-08-11T01:37:09.679Z,1020.59
2016-08-11T01:38:09.636Z,1020.59
2016-08-11T01:39:09.586Z,1020.59
2016-08-11T01:40:09.535Z,1020.58
2016-08-11T01:41:09.487Z,1020.62
2016-08-11T01:42:09.438Z,1020.62
2016-08-11T01:43:09.385Z,1020.63
2016-08-11T01:44:09.336Z,1020.67
2016-08-11T01:45:09.489Z,1020.62
2016-08-11T01:46:09.243Z,1020.67
2016-08-11T01:47:09.191Z,1020.64
2016-08-11T01:48:09.145Z,1020.69
2016-08-11T01:49:09.092Z,1020.67
2016-08-11T01:50:09.050Z,1020.67
2016-08-11T01:51:08.996Z,1020.69
2016-08-11T01:52:08.944Z,1020.68
2016-08-11T01:53:08.896Z,1020.7
2016-08-11T01:54:08.846Z,1020.7
2016-08-11T01:55:08.798Z,1020.72
2016-08-11T01:56:08.755Z,1020.73
2016-08-11T01:57:08.701Z,1020.73
2016-08-11T01:58:08.658Z,1020.73
2016-08-11T01:59:08.604Z,1020.73
2016-08-11T02:00:08.553Z,1020.72
2016-08-11T02:01:08.505Z,1020.74
2016-08-11T02:02:08.456Z,1020.73
2016-08-11T02:03:08.405Z,1020.74
2016-08-11T02:04:08.354Z,1020.72
2016-08-11T02:05:08.509Z,1020.73
2016-08-11T02:06:08.257Z,1020.72
2016-08-11T02:07:08.209Z,1020.71
2016-08-11T02:08:08.361Z,1020.68
2016-08-11T02:09:08.114Z,1020.7
2016-08-11T02:10:08.065Z,1020.76
2016-08-11T02:11:08.012Z,1020.72
2016-08-11T02:12:07.965Z,1020.69
2016-08-11T02:13:07.915Z,1020.7
2016-08-11T02:14:07.863Z,1020.69
2016-08-11T02:15:07.812Z,1020.71
2016-08-11T02:16:07.967Z,1020.69
2016-08-11T02:17:07.714Z,1020.66
2016-08-11T02:18:07.665Z,1020.67
2016-08-11T02:19:07.618Z,1020.66
2016-08-11T02:20:07.568Z,1020.65
2016-08-11T02:21:07.524Z,1020.62
2016-08-11T02:22:07.675Z,1020.6
2016-08-11T02:23:07.426Z,1020.57
2016-08-11T02:24:07.374Z,1020.59
2016-08-11T02:25:07.325Z,1020.57
2016-08-11T02:26:07.272Z,1020.57
2016-08-11T02:27:07.233Z,1020.59
2016-08-11T02:28:07.176Z,1020.59
2016-08-11T02:29:07.131Z,1020.62
2016-08-11T02:30:07.073Z,1020.61
2016-08-11T02:31:07.025Z,1020.62
2016-08-11T02:32:06.977Z,1020.6
2016-08-11T02:33:06.932Z,1020.58
2016-08-11T02:34:07.082Z,1020.6
2016-08-11T02:35:06.833Z,1020.59
2016-08-11T02:36:06.779Z,1020.56
2016-08-11T02:37:06.731Z,1020.56
2016-08-11T02:38:06.684Z,1020.53
2016-08-11T02:39:06.634Z,1020.55
2016-08-11T02:40:06.585Z,1020.57
2016-08-11T02:41:06.540Z,1020.54
2016-08-11T02:42:06.485Z,1020.55
2016-08-11T02:43:06.446Z,1020.57
2016-08-11T02:44:06.391Z,1020.58
2016-08-11T02:45:06.334Z,1020.6
2016-08-11T02:46:06.300Z,1020.61
2016-08-11T02:47:06.243Z,1020.65
2016-08-11T02:48:06.193Z,1020.65
2016-08-11T02:49:06.145Z,1020.62
2016-08-11T02:50:06.086Z,1020.6
2016-08-11T02:51:06.038Z,1020.6
2016-08-11T02:52:05.993Z,1020.63
2016-08-11T02:53:05.942Z,1020.57
2016-08-11T02:54:05.899Z,1020.6
2016-08-11T02:55:06.044Z,1020.59
2016-08-11T02:56:05.994Z,1020.6
2016-08-11T02:57:05.745Z,1020.62
2016-08-11T02:58:05.695Z,1020.63
2016-08-11T02:59:05.655Z,1020.64
2016-08-11T03:00:05.592Z,1020.62
2016-08-11T03:01:05.749Z,1020.65
2016-08-11T03:02:05.499Z,1020.59
2016-08-11T03:03:05.445Z,1020.61
2016-08-11T03:04:05.395Z,1020.59
2016-08-11T03:05:05.348Z,1020.6
2016-08-11T03:06:05.306Z,1020.58
2016-08-11T03:07:05.255Z,1020.63
2016-08-11T03:08:05.204Z,1020.63
2016-08-11T03:09:05.156Z,1020.6
2016-08-11T03:10:05.102Z,1020.62
2016-08-11T03:11:05.250Z,1020.6
2016-08-11T03:12:05.004Z,1020.59
2016-08-11T03:13:04.953Z,1020.58
2016-08-11T03:14:04.905Z,1020.55
2016-08-11T03:15:04.849Z,1020.57
2016-08-11T03:16:04.802Z,1020.55
2016-08-11T03:17:04.750Z,1020.53
2016-08-11T03:18:04.705Z,1020.52
2016-08-11T03:19:04.649Z,1020.56
2016-08-11T03:20:04.600Z,1020.56
2016-08-11T03:21:04.554Z,1020.57
2016-08-11T03:22:04.503Z,1020.59
2016-08-11T03:23:04.451Z,1020.56
2016-08-11T03:24:04.407Z,1020.57
2016-08-11T03:25:04.351Z,1020.62
2016-08-11T03:26:04.303Z,1020.6
2016-08-11T03:27:04.266Z,1020.6
2016-08-11T03:28:04.202Z,1020.62
2016-08-11T03:29:04.155Z,1020.61
2016-08-11T03:30:04.103Z,1020.62
2016-08-11T03:31:04.055Z,1020.61
2016-08-11T03:32:04.005Z,1020.6
2016-08-11T03:33:03.963Z,1020.6
2016-08-11T03:34:04.106Z,1020.56
2016-08-11T03:35:03.855Z,1020.58
2016-08-11T03:36:03.805Z,1020.54
2016-08-11T03:37:03.758Z,1020.51
2016-08-11T03:38:03.704Z,1020.58
2016-08-11T03:39:03.654Z,1020.56
2016-08-11T03:40:03.827Z,1020.56
2016-08-11T03:41:03.562Z,1020.53
2016-08-11T03:42:03.510Z,1020.5
2016-08-11T03:43:03.453Z,1020.53
2016-08-11T03:44:03.815Z,1020.49
2016-08-11T03:45:03.565Z,1020.55
2016-08-11T03:46:04.506Z,1020.54
2016-08-11T03:47:03.259Z,1020.53
2016-08-11T03:48:03.219Z,1020.54
2016-08-11T03:49:03.160Z,1020.56
2016-08-11T03:50:03.114Z,1020.53
2016-08-11T03:51:03.059Z,1020.5
2016-08-11T03:52:03.015Z,1020.55
2016-08-11T03:53:02.967Z,1020.57
2016-08-11T03:54:02.912Z,1020.55
2016-08-11T03:55:02.860Z,1020.54
2016-08-11T03:56:02.809Z,1020.57
2016-08-11T03:57:02.764Z,1020.6
2016-08-11T03:58:02.720Z,1020.58
2016-08-11T03:59:02.664Z,1020.59
2016-08-11T04:00:02.613Z,1020.59
2016-08-11T04:01:02.762Z,1020.61
2016-08-11T04:02:02.516Z,1020.58
2016-08-11T04:03:02.467Z,1020.59
2016-08-11T04:04:02.415Z,1020.55
2016-08-11T04:05:02.366Z,1020.61
2016-08-11T04:06:02.316Z,1020.56
2016-08-11T04:07:02.265Z,1020.59
2016-08-11T04:08:02.214Z,1020.56
2016-08-11T04:09:02.165Z,1020.54
2016-08-11T04:10:02.118Z,1020.54
2016-08-11T04:11:02.066Z,1020.55
2016-08-11T04:12:02.015Z,1020.57
2016-08-11T04:13:01.969Z,1020.55
2016-08-11T04:14:01.916Z,1020.55
2016-08-11T04:15:01.879Z,1020.54
2016-08-11T04:16:01.816Z,1020.53
2016-08-11T04:17:01.765Z,1020.55
2016-08-11T04:18:01.719Z,1020.54
2016-08-11T04:19:01.671Z,1020.55
2016-08-11T04:20:01.619Z,1020.54
2016-08-11T04:21:01.568Z,1020.5
2016-08-11T04:22:01.518Z,1020.49
2016-08-11T04:23:01.467Z,1020.5
2016-08-11T04:24:01.427Z,1020.49
2016-08-11T04:25:01.365Z,1020.51
2016-08-11T04:26:01.322Z,1020.5
2016-08-11T04:27:01.276Z,1020.49
2016-08-11T04:28:01.221Z,1020.52
2016-08-11T04:30:01.324Z,1020.48
2016-08-11T04:31:01.075Z,1020.5
2016-08-11T04:32:01.020Z,1020.47
2016-08-11T04:33:01.174Z,1020.49
2016-08-11T04:34:00.919Z,1020.47
2016-08-11T04:35:01.070Z,1020.48
2016-08-11T04:36:00.824Z,1020.44
2016-08-11T04:37:00.776Z,1020.46
2016-08-11T04:38:00.725Z,1020.45
2016-08-11T04:39:00.671Z,1020.53
2016-08-11T04:40:00.826Z,1020.56
2016-08-11T04:41:00.776Z,1020.58
2016-08-11T04:42:00.523Z,1020.55
2016-08-11T04:43:00.673Z,1020.54
2016-08-11T04:44:00.620Z,1020.55
2016-08-11T04:45:00.374Z,1020.54
2016-08-11T04:46:00.326Z,1020.53
2016-08-11T04:47:00.274Z,1020.54
2016-08-11T04:48:00.225Z,1020.52
2016-08-11T04:49:00.174Z,1020.54
2016-08-11T04:50:00.322Z,1020.53
2016-08-11T04:51:00.078Z,1020.5
2016-08-11T04:52:00.087Z,1020.51
2016-08-11T04:52:59.971Z,1020.49
2016-08-11T04:53:59.924Z,1020.49
2016-08-11T04:54:59.870Z,1020.54
2016-08-11T04:55:59.826Z,1020.52
2016-08-11T04:56:59.771Z,1020.53
2016-08-11T04:57:59.722Z,1020.5
2016-08-11T04:59:59.615Z,1020.57
2016-08-11T05:00:59.775Z,1020.54
2016-08-11T05:01:59.525Z,1020.53
2016-08-11T05:02:59.469Z,1020.55
2016-08-11T05:03:59.415Z,1020.55
2016-08-11T05:04:59.366Z,1020.55
2016-08-11T05:05:59.525Z,1020.58
2016-08-11T05:06:59.275Z,1020.51
2016-08-11T05:07:59.225Z,1020.49
2016-08-11T05:08:59.176Z,1020.52
2016-08-11T05:09:59.112Z,1020.51
2016-08-11T05:10:59.064Z,1020.51
2016-08-11T05:11:59.016Z,1020.55
2016-08-11T05:12:58.966Z,1020.56
2016-08-11T05:14:58.875Z,1020.55
2016-08-11T05:15:59.017Z,1020.54
2016-08-11T05:16:58.764Z,1020.57
2016-08-11T05:17:58.915Z,1020.53
2016-08-11T05:18:58.664Z,1020.54
2016-08-11T05:19:58.614Z,1020.54
2016-08-11T05:20:58.569Z,1020.51
2016-08-11T05:21:58.517Z,1020.5
2016-08-11T05:22:58.476Z,1020.52
2016-08-11T05:23:58.415Z,1020.54
2016-08-11T05:24:58.368Z,1020.55
2016-08-11T05:25:58.314Z,1020.51
2016-08-11T05:26:58.269Z,1020.54
2016-08-11T05:27:58.227Z,1020.56
2016-08-11T05:28:58.165Z,1020.49
2016-08-11T05:29:58.115Z,1020.52
2016-08-11T05:30:58.066Z,1020.48
2016-08-11T05:31:58.018Z,1020.53
2016-08-11T05:32:57.964Z,1020.52
2016-08-11T05:33:57.917Z,1020.53
2016-08-11T05:34:57.865Z,1020.54
2016-08-11T05:35:57.824Z,1020.59
2016-08-11T05:36:57.964Z,1020.6
2016-08-11T05:37:57.714Z,1020.61
2016-08-11T05:38:57.671Z,1020.61
2016-08-11T05:39:57.617Z,1020.63
2016-08-11T05:40:57.564Z,1020.55
2016-08-11T05:41:57.519Z,1020.53
2016-08-11T05:42:57.468Z,1020.57
2016-08-11T05:43:57.431Z,1020.54
2016-08-11T05:44:57.362Z,1020.53
2016-08-11T05:45:57.325Z,1020.54
2016-08-11T05:46:57.265Z,1020.55
2016-08-11T05:47:57.221Z,1020.57
2016-08-11T05:48:57.170Z,1020.56
2016-08-11T05:49:57.321Z,1020.55
2016-08-11T05:50:57.067Z,1020.56
2016-08-11T05:51:57.018Z,1020.5
2016-08-11T05:52:56.972Z,1020.58
2016-08-11T05:53:56.923Z,1020.52
2016-08-11T05:54:57.071Z,1020.53
2016-08-11T05:55:56.820Z,1020.54
2016-08-11T05:56:56.823Z,1020.57
2016-08-11T05:57:56.725Z,1020.55
2016-08-11T05:58:56.668Z,1020.58
2016-08-11T05:59:56.621Z,1020.55
2016-08-11T06:00:56.570Z,1020.57
2016-08-11T06:01:56.723Z,1020.55
2016-08-11T06:02:56.472Z,1020.53
2016-08-11T06:03:56.422Z,1020.6
2016-08-11T06:04:56.373Z,1020.58
2016-08-11T06:05:56.329Z,1020.64
2016-08-11T06:06:56.278Z,1020.64
2016-08-11T06:07:56.227Z,1020.63
2016-08-11T06:08:56.377Z,1020.67
2016-08-11T06:09:56.124Z,1020.68
2016-08-11T06:10:56.092Z,1020.69
2016-08-11T06:11:56.026Z,1020.69
2016-08-11T06:12:55.974Z,1020.71
2016-08-11T06:13:55.925Z,1020.71
2016-08-11T06:14:55.883Z,1020.75
2016-08-11T06:15:55.829Z,1020.7
2016-08-11T06:16:55.784Z,1020.68
2016-08-11T06:17:55.731Z,1020.68
2016-08-11T06:18:55.678Z,1020.68
2016-08-11T06:19:55.865Z,1020.65
2016-08-11T06:20:55.585Z,1020.68
2016-08-11T06:21:55.535Z,1020.7
2016-08-11T06:22:55.495Z,1020.68
2016-08-11T06:23:55.433Z,1020.69
2016-08-11T06:24:55.385Z,1020.67
2016-08-11T06:25:55.335Z,1020.59
2016-08-11T06:26:55.495Z,1020.57
2016-08-11T06:27:55.239Z,1020.55
2016-08-11T06:28:55.190Z,1020.56
2016-08-11T06:29:55.146Z,1020.55
2016-08-11T06:30:55.095Z,1020.57
2016-08-11T06:31:55.041Z,1020.54
2016-08-11T06:32:54.995Z,1020.56
2016-08-11T06:33:54.944Z,1020.58
2016-08-11T06:34:54.896Z,1020.61
2016-08-11T06:35:54.843Z,1020.61
2016-08-11T06:36:54.793Z,1020.57
2016-08-11T06:37:54.948Z,1020.56
2016-08-11T06:38:54.697Z,1020.57
2016-08-11T06:39:54.649Z,1020.56
2016-08-11T06:40:54.595Z,1020.59
2016-08-11T06:41:55.152Z,1020.61
2016-08-11T06:42:54.696Z,1020.58
2016-08-11T06:43:54.650Z,1020.6
2016-08-11T06:44:54.399Z,1020.55
2016-08-11T06:45:54.352Z,1020.5
2016-08-11T06:46:54.302Z,1020.5
2016-08-11T06:47:54.253Z,1020.48
2016-08-11T06:48:54.231Z,1020.45
2016-08-11T06:49:54.166Z,1020.44
2016-08-11T06:50:54.104Z,1020.42
2016-08-11T06:51:54.066Z,1020.43
2016-08-11T06:52:54.013Z,1020.43
2016-08-11T06:53:54.166Z,1020.47
2016-08-11T06:54:54.315Z,1020.47
2016-08-11T06:55:53.898Z,1020.43
2016-08-11T06:56:54.235Z,1020.46
2016-08-11T06:57:53.776Z,1020.47
2016-08-11T06:58:53.714Z,1020.5
2016-08-11T06:59:53.663Z,1020.48
2016-08-11T07:00:53.613Z,1020.51
2016-08-11T07:01:53.566Z,1020.47
2016-08-11T07:02:53.525Z,1020.46
2016-08-11T07:03:53.471Z,1020.47
2016-08-11T07:04:53.419Z,1020.47
2016-08-11T07:05:53.377Z,1020.45
2016-08-11T07:06:53.518Z,1020.45
2016-08-11T07:07:53.276Z,1020.4
2016-08-11T07:08:53.224Z,1020.43
2016-08-11T07:09:53.174Z,1020.42
2016-08-11T07:10:53.132Z,1020.41
2016-08-11T07:11:53.082Z,1020.35
2016-08-11T07:12:53.036Z,1020.38
2016-08-11T07:13:52.988Z,1020.41
2016-08-11T07:14:53.144Z,1020.42
2016-08-11T07:15:53.091Z,1020.43
2016-08-11T07:16:52.837Z,1020.41
2016-08-11T07:17:52.795Z,1020.42
2016-08-11T07:18:52.742Z,1020.42
2016-08-11T07:19:52.707Z,1020.42
2016-08-11T07:20:52.646Z,1020.44
2016-08-11T07:21:52.606Z,1020.41
2016-08-11T07:22:52.545Z,1020.45
2016-08-11T07:23:52.514Z,1020.44
2016-08-11T07:24:52.644Z,1020.44
2016-08-11T07:25:52.407Z,1020.43
2016-08-11T07:26:52.363Z,1020.54
2016-08-11T07:27:52.307Z,1020.52
2016-08-11T07:28:52.265Z,1020.54
2016-08-11T07:29:52.210Z,1020.58
2016-08-11T07:30:52.156Z,1020.52
2016-08-11T07:31:52.120Z,1020.57
2016-08-11T07:32:52.066Z,1020.54
2016-08-11T07:33:52.015Z,1020.58
2016-08-11T07:34:51.960Z,1020.56
2016-08-11T07:35:51.912Z,1020.57
2016-08-11T07:36:51.864Z,1020.55
2016-08-11T07:37:52.110Z,1020.53
2016-08-11T07:38:51.965Z,1020.51
2016-08-11T07:39:51.724Z,1020.49
2016-08-11T07:40:51.675Z,1020.49
2016-08-11T07:41:51.628Z,1020.42
2016-08-11T07:42:51.581Z,1020.41
2016-08-11T07:43:51.534Z,1020.41
2016-08-11T07:44:51.484Z,1020.42
2016-08-11T07:45:51.435Z,1020.37
2016-08-11T07:46:51.384Z,1020.34
2016-08-11T07:47:51.346Z,1020.36
2016-08-11T07:48:51.290Z,1020.35
2016-08-11T07:49:51.241Z,1020.31
2016-08-11T07:50:51.400Z,1020.27
2016-08-11T07:51:51.170Z,1020.31
2016-08-11T07:52:51.155Z,1020.29
2016-08-11T07:53:51.055Z,1020.32
2016-08-11T07:54:51.008Z,1020.36
2016-08-11T07:55:50.953Z,1020.32
2016-08-11T07:56:50.903Z,1020.29
2016-08-11T07:57:50.863Z,1020.27
2016-08-11T07:58:50.813Z,1020.26
2016-08-11T07:59:50.757Z,1020.23
2016-08-11T08:00:50.711Z,1020.21
2016-08-11T08:01:50.679Z,1020.19
2016-08-11T08:02:50.620Z,1020.2
2016-08-11T08:03:50.583Z,1020.19
2016-08-11T08:04:50.549Z,1020.18
2016-08-11T08:05:50.473Z,1020.17
2016-08-11T08:06:50.429Z,1020.19
2016-08-11T08:07:50.380Z,1020.14
2016-08-11T08:08:50.331Z,1020.13
2016-08-11T08:09:50.284Z,1020.16
2016-08-11T08:10:50.252Z,1020.11
2016-08-11T08:11:50.191Z,1020.11
2016-08-11T08:12:50.155Z,1020.17
2016-08-11T08:13:50.108Z,1020.09
2016-08-11T08:14:50.047Z,1020.1
2016-08-11T08:15:50.003Z,1020.09
2016-08-11T08:16:50.199Z,1020.1
2016-08-11T08:17:50.116Z,1020.06
2016-08-11T08:18:50.151Z,1020.05
2016-08-11T08:19:49.821Z,1020.06
2016-08-11T08:20:49.820Z,1020.03
2016-08-11T08:21:49.720Z,1020.03
2016-08-11T08:22:49.741Z,1020.03
2016-08-11T08:23:49.622Z,1020.05
2016-08-11T08:24:49.584Z,1020.07
2016-08-11T08:25:49.526Z,1020.12
2016-08-11T08:26:49.480Z,1020.03
2016-08-11T08:27:49.433Z,1020.02
2016-08-11T08:28:49.389Z,1019.99
2016-08-11T08:29:49.341Z,1020
2016-08-11T08:30:49.292Z,1019.97
2016-08-11T08:31:49.245Z,1020.03
2016-08-11T08:32:49.212Z,1020.02
2016-08-11T08:33:49.159Z,1020
2016-08-11T08:34:49.118Z,1019.95
2016-08-11T08:35:49.279Z,1019.98
2016-08-11T08:36:49.009Z,1019.96
2016-08-11T08:37:48.962Z,1019.94
2016-08-11T08:38:49.109Z,1019.94
2016-08-11T08:39:49.062Z,1019.92
2016-08-11T08:40:49.025Z,1019.92
2016-08-11T08:41:48.979Z,1019.94
2016-08-11T08:42:48.723Z,1019.86
2016-08-11T08:43:48.670Z,1019.92
2016-08-11T08:44:48.629Z,1019.89
2016-08-11T08:45:48.576Z,1019.93
2016-08-11T08:46:48.539Z,1019.88
2016-08-11T08:47:48.488Z,1019.97
2016-08-11T08:48:48.435Z,1019.9
2016-08-11T08:49:48.590Z,1019.83
2016-08-11T08:50:48.374Z,1019.85
2016-08-11T08:51:48.302Z,1019.86
2016-08-11T08:52:48.250Z,1019.81
2016-08-11T08:53:48.241Z,1019.83
2016-08-11T08:54:48.177Z,1019.81
2016-08-11T08:55:48.107Z,1019.82
2016-08-11T08:56:48.083Z,1019.87
2016-08-11T08:57:48.021Z,1019.82
2016-08-11T08:58:48.045Z,1019.72
2016-08-11T08:59:48.235Z,1019.68
2016-08-11T09:00:48.083Z,1019.67
2016-08-11T09:01:47.830Z,1019.69
2016-08-11T09:02:48.008Z,1019.62
2016-08-11T09:03:47.732Z,1019.63
2016-08-11T09:04:47.683Z,1019.6
2016-08-11T09:05:47.645Z,1019.61
2016-08-11T09:06:47.604Z,1019.59
2016-08-11T09:07:47.545Z,1019.58
2016-08-11T09:08:47.506Z,1019.57
2016-08-11T09:09:47.478Z,1019.57
2016-08-11T09:10:47.404Z,1019.53
2016-08-11T09:11:47.357Z,1019.54
2016-08-11T09:12:47.312Z,1019.56
2016-08-11T09:13:47.263Z,1019.55
2016-08-11T09:14:47.216Z,1019.59
2016-08-11T09:15:47.173Z,1019.58
2016-08-11T09:16:47.125Z,1019.63
2016-08-11T09:17:47.073Z,1019.56
2016-08-11T09:18:47.029Z,1019.56
2016-08-11T09:19:46.984Z,1019.52
2016-08-11T09:20:46.936Z,1019.54
2016-08-11T09:21:47.087Z,1019.54
2016-08-11T09:22:46.845Z,1019.56
2016-08-11T09:23:46.995Z,1019.59
2016-08-11T09:24:46.750Z,1019.57
2016-08-11T09:25:46.701Z,1019.58
2016-08-11T09:26:46.654Z,1019.57
2016-08-11T09:27:46.613Z,1019.57
2016-08-11T09:28:46.764Z,1019.62
2016-08-11T09:29:46.516Z,1019.6
2016-08-11T09:30:46.468Z,1019.55
2016-08-11T09:31:46.424Z,1019.56
2016-08-11T09:32:46.375Z,1019.59
2016-08-11T09:33:46.331Z,1019.61
2016-08-11T09:34:46.283Z,1019.58
2016-08-11T09:35:46.235Z,1019.54
2016-08-11T09:36:46.186Z,1019.56
2016-08-11T09:37:46.153Z,1019.52
2016-08-11T09:38:46.094Z,1019.46
2016-08-11T09:39:46.057Z,1019.43
2016-08-11T09:40:46.006Z,1019.47
2016-08-11T09:41:45.959Z,1019.42
2016-08-11T09:42:45.918Z,1019.43
2016-08-11T09:43:45.862Z,1019.37
2016-08-11T09:44:45.813Z,1019.39
2016-08-11T09:45:45.769Z,1019.37
2016-08-11T09:46:45.737Z,1019.29
2016-08-11T09:47:45.678Z,1019.3
2016-08-11T09:48:45.841Z,1019.35
2016-08-11T09:49:45.602Z,1019.36
2016-08-11T09:50:45.541Z,1019.33
2016-08-11T09:51:45.494Z,1019.32
2016-08-11T09:52:45.448Z,1019.33
2016-08-11T09:53:45.398Z,1019.29
2016-08-11T09:54:45.378Z,1019.29
2016-08-11T09:55:45.305Z,1019.3
2016-08-11T09:56:45.255Z,1019.31
2016-08-11T09:57:45.215Z,1019.3
2016-08-11T09:58:45.161Z,1019.28
2016-08-11T09:59:45.323Z,1019.26
2016-08-11T10:00:45.287Z,1019.27
2016-08-11T10:01:45.036Z,1019.25
2016-08-11T10:02:45.275Z,1019.23
2016-08-11T10:03:44.960Z,1019.21
2016-08-11T10:04:44.886Z,1019.21
2016-08-11T10:05:44.860Z,1019.17
2016-08-11T10:06:44.808Z,1019.15
2016-08-11T10:07:44.751Z,1019.15
2016-08-11T10:08:44.706Z,1019.11
2016-08-11T10:09:44.666Z,1019.12
2016-08-11T10:10:44.807Z,1019.09
2016-08-11T10:11:44.961Z,1019.06
2016-08-11T10:12:44.522Z,1019.07
2016-08-11T10:13:44.673Z,1019.08
2016-08-11T10:14:50.726Z,1019.04
2016-08-11T10:15:44.389Z,1019.02
2016-08-11T10:16:44.329Z,1019.07
2016-08-11T10:17:44.490Z,1019.06
2016-08-11T10:18:44.463Z,1019.05
2016-08-11T10:19:44.221Z,1019.03
2016-08-11T10:20:44.154Z,1019.05
2016-08-11T10:21:44.109Z,1019.05
2016-08-11T10:22:44.070Z,1019.03
2016-08-11T10:23:44.025Z,1018.99
2016-08-11T10:24:43.963Z,1018.96
2016-08-11T10:25:43.923Z,1018.94
2016-08-11T10:26:43.883Z,1018.94
2016-08-11T10:27:43.833Z,1018.92
2016-08-11T10:28:43.781Z,1018.92
2016-08-11T10:30:43.694Z,1018.91
2016-08-11T10:31:43.921Z,1018.85
2016-08-11T10:32:43.595Z,1018.85
2016-08-11T10:33:43.639Z,1018.83
2016-08-11T10:34:43.547Z,1018.83
2016-08-11T10:35:43.660Z,1018.77
2016-08-11T10:36:43.415Z,1018.78
2016-08-11T10:37:43.370Z,1018.75
2016-08-11T10:38:43.320Z,1018.75
2016-08-11T10:39:43.280Z,1018.81
2016-08-11T10:40:43.234Z,1018.77
2016-08-11T10:41:43.209Z,1018.73
2016-08-11T10:42:43.143Z,1018.75
2016-08-11T10:43:43.137Z,1018.67
2016-08-11T10:45:43.007Z,1018.73
2016-08-11T10:46:42.960Z,1018.75
2016-08-11T10:47:42.910Z,1018.71
2016-08-11T10:48:43.068Z,1018.71
2016-08-11T10:49:42.826Z,1018.66
2016-08-11T10:50:43.583Z,1018.63
2016-08-11T10:51:42.973Z,1018.66
2016-08-11T10:52:42.894Z,1018.62
2016-08-11T10:53:42.633Z,1018.69
2016-08-11T10:54:42.594Z,1018.74
2016-08-11T10:55:42.753Z,1018.58
2016-08-11T10:56:42.503Z,1018.62
2016-08-11T10:57:42.472Z,1018.63
2016-08-11T10:58:42.600Z,1018.66
2016-08-11T10:59:42.402Z,1018.65
2016-08-11T11:00:42.532Z,1018.66
2016-08-11T11:01:42.467Z,1018.62
2016-08-11T11:02:42.224Z,1018.66
2016-08-11T11:03:42.185Z,1018.62
2016-08-11T11:04:42.132Z,1018.56
2016-08-11T11:05:42.083Z,1018.55
2016-08-11T11:06:42.049Z,1018.59
2016-08-11T11:07:42.027Z,1018.6
2016-08-11T11:08:41.960Z,1018.53
2016-08-11T11:09:41.905Z,1018.59
2016-08-11T11:10:42.086Z,1018.64
2016-08-11T11:11:41.813Z,1018.59
2016-08-11T11:12:41.770Z,1018.68
2016-08-11T11:13:41.730Z,1018.63
2016-08-11T11:14:41.673Z,1018.64
2016-08-11T11:15:41.628Z,1018.67
2016-08-11T11:16:41.581Z,1018.71
2016-08-11T11:17:41.542Z,1018.68
2016-08-11T11:18:41.491Z,1018.76
2016-08-11T11:19:41.460Z,1018.69
2016-08-11T11:20:41.595Z,1018.71
2016-08-11T11:21:41.412Z,1018.68
2016-08-11T11:22:41.526Z,1018.7
2016-08-11T11:23:41.272Z,1018.69
2016-08-11T11:24:41.225Z,1018.64
2016-08-11T11:25:41.179Z,1018.64
2016-08-11T11:26:41.133Z,1018.65
2016-08-11T11:27:41.084Z,1018.62
2016-08-11T11:28:41.039Z,1018.63
2016-08-11T11:29:40.996Z,1018.6
2016-08-11T11:30:40.953Z,1018.58
2016-08-11T11:31:40.905Z,1018.59
2016-08-11T11:32:40.856Z,1018.57
2016-08-11T11:33:40.826Z,1018.55
2016-08-11T11:34:40.779Z,1018.56
2016-08-11T11:35:40.726Z,1018.45
2016-08-11T11:36:40.677Z,1018.53
2016-08-11T11:37:40.831Z,1018.49
2016-08-11T11:38:40.983Z,1018.47
2016-08-11T11:39:40.540Z,1018.47
2016-08-11T11:40:40.491Z,1018.45
2016-08-11T11:41:40.448Z,1018.44
2016-08-11T11:42:40.402Z,1018.49
2016-08-11T11:43:40.564Z,1018.48
2016-08-11T11:44:40.316Z,1018.51
2016-08-11T11:45:40.468Z,1018.44
2016-08-11T11:46:40.224Z,1018.52
2016-08-11T11:47:40.172Z,1018.48
2016-08-11T11:48:40.333Z,1018.46
2016-08-11T11:49:40.091Z,1018.5
2016-08-11T11:50:40.034Z,1018.51
2016-08-11T11:51:40.198Z,1018.47
2016-08-11T11:52:39.951Z,1018.51
2016-08-11T11:53:39.899Z,1018.56
2016-08-11T11:54:39.853Z,1018.52
2016-08-11T11:55:39.809Z,1018.51
2016-08-11T11:56:39.827Z,1018.53
2016-08-11T11:57:39.733Z,1018.54
2016-08-11T11:58:39.675Z,1018.61
2016-08-11T11:59:39.627Z,1018.56
2016-08-11T12:00:39.584Z,1018.6
2016-08-11T12:01:39.534Z,1018.64
2016-08-11T12:02:39.492Z,1018.65
2016-08-11T12:03:39.441Z,1018.63
2016-08-11T12:04:39.397Z,1018.67
2016-08-11T12:05:39.355Z,1018.64
2016-08-11T12:06:39.307Z,1018.66
2016-08-11T12:07:39.532Z,1018.61
2016-08-11T12:08:39.211Z,1018.64
2016-08-11T12:09:39.174Z,1018.65
2016-08-11T12:10:39.121Z,1018.71
2016-08-11T12:11:39.080Z,1018.7
2016-08-11T12:12:39.033Z,1018.59